Terminal Aerodrome Forecast
Issued by NWS

Home | Current Version | Previous Version | Text Only | Print | Product List | Glossary On
Versions: 1 2 3 4 5 6 7 8 9 10 11 12
417
FTUS44 KEPZ 300520
TAFLRU
TAF
KLRU 300520Z 3006/0106 13010KT P6SM FEW060 SCT100 BKN140
     FM300700 11009KT P6SM VCSH BKN050 OVC120
      TEMPO 3007/3010 -SHRA BKN050 BKN120
     FM301200 07009KT P6SM VCSH SCT050 BKN120 OVC180
     FM301900 15010KT P6SM SCT070 BKN110 BKN180
     FM010300 13008KT P6SM SCT050 BKN110 BKN180=

USA.gov is the U.S. government's official web portal to all federal, state and local government web resources and services.